Time;durP1;ratioP1;P1;durP2;ratioP2;P2;SDS_P1;SDS_P2;PMS_P1;PMS_P2;Temp;Humidity;BMP_temperature;BMP_pressure;BME280_temperature;BME280_humidity;BME280_pressure;Samples;Min_cycle;Max_cycle;Signal;HPM_P1;HPM_P2
2023/12/27 00:01:00;;;;;;;3.20;2.90;;;;;;;8.82;83.35;98622.97;5023125;28;20206;-73
2023/12/27 00:03:27;;;;;;;3.60;2.90;;;;;;;8.63;83.47;98622.41;5038655;28;20208;-72
2023/12/27 00:05:54;;;;;;;2.92;2.60;;;;;;;8.59;81.97;98629.16;5039025;28;20211;-73
2023/12/27 00:08:22;;;;;;;5.88;2.72;;;;;;;8.84;81.94;98632.56;5028417;28;20206;-73
2023/12/27 00:10:48;;;;;;;2.95;2.60;;;;;;;8.54;82.42;98633.38;5039011;28;20229;-72
2023/12/27 00:13:15;;;;;;;3.80;3.30;;;;;;;8.62;82.55;98639.59;5023666;28;20686;-73
2023/12/27 00:15:45;;;;;;;2.88;2.55;;;;;;;8.57;83.21;98627.66;5040661;28;20226;-72
2023/12/27 00:18:12;;;;;;;3.90;2.78;;;;;;;8.51;83.58;98631.88;5054847;28;20206;-71
2023/12/27 00:20:40;;;;;;;4.07;2.60;;;;;;;8.23;84.81;98623.34;5041676;28;20213;-72
2023/12/27 00:23:05;;;;;;;2.70;2.50;;;;;;;8.33;84.89;98618.63;5035718;28;20237;-72
2023/12/27 00:25:33;;;;;;;4.23;2.83;;;;;;;8.05;86.83;98620.03;5019933;28;20630;-71
2023/12/27 00:28:00;;;;;;;3.63;2.70;;;;;;;8.02;87.47;98615.00;5037344;28;20201;-72
2023/12/27 00:30:27;;;;;;;3.80;3.50;;;;;;;8.11;86.54;98615.81;5037179;28;20568;-72
2023/12/27 00:32:53;;;;;;;3.17;2.75;;;;;;;8.28;85.91;98620.97;5035482;28;20231;-72
2023/12/27 00:35:20;;;;;;;3.90;2.90;;;;;;;8.37;85.76;98624.53;5039498;28;20231;-72
2023/12/27 00:37:46;;;;;;;2.67;2.47;;;;;;;8.56;84.94;98632.19;5036102;28;20237;-72
2023/12/27 00:40:13;;;;;;;3.03;2.58;;;;;;;8.48;85.64;98634.91;5038861;28;20198;-73
2023/12/27 00:42:41;;;;;;;3.65;2.60;;;;;;;8.41;85.79;98628.56;5038345;28;20567;-72
2023/12/27 00:45:09;;;;;;;2.63;2.42;;;;;;;8.34;86.25;98627.56;5035330;28;20207;-72
2023/12/27 00:47:35;;;;;;;3.35;2.55;;;;;;;8.44;85.28;98628.22;5034416;28;20217;-72
2023/12/27 00:50:02;;;;;;;5.20;2.78;;;;;;;8.37;85.87;98613.75;5037550;28;20205;-72
2023/12/27 00:52:28;;;;;;;3.47;2.95;;;;;;;8.69;84.90;98619.00;5034452;28;20212;-72
2023/12/27 00:54:55;;;;;;;3.30;2.80;;;;;;;8.48;85.99;98601.72;5038350;28;20197;-72
2023/12/27 00:57:21;;;;;;;3.25;2.67;;;;;;;8.41;85.31;98610.53;5038160;28;20683;-72
2023/12/27 00:59:49;;;;;;;4.05;2.50;;;;;;;8.43;85.17;98617.59;5039346;28;20315;-72
2023/12/27 01:02:16;;;;;;;3.22;2.17;;;;;;;8.40;85.21;98616.94;5035915;28;20208;-72
2023/12/27 01:04:43;;;;;;;3.38;3.00;;;;;;;8.19;86.31;98618.47;5003996;28;20202;-72
2023/12/27 01:07:10;;;;;;;2.80;2.47;;;;;;;8.44;85.46;98612.03;5036160;28;20202;-73
2023/12/27 01:09:37;;;;;;;3.13;2.60;;;;;;;8.53;84.90;98608.25;5022403;28;20825;-72
2023/12/27 01:12:04;;;;;;;4.45;2.72;;;;;;;8.47;85.71;98606.25;5036559;28;20212;-73
2023/12/27 01:14:31;;;;;;;3.22;2.60;;;;;;;8.58;85.17;98613.97;5036846;28;20223;-72
2023/12/27 01:16:59;;;;;;;3.22;2.40;;;;;;;8.36;86.18;98620.16;5034493;28;20247;-73
2023/12/27 01:19:26;;;;;;;3.00;2.58;;;;;;;8.31;85.91;98612.53;5039450;28;20591;-72
2023/12/27 01:21:52;;;;;;;3.75;3.35;;;;;;;8.37;85.25;98611.88;5022098;28;20567;-73
2023/12/27 01:24:19;;;;;;;3.70;2.80;;;;;;;8.54;84.90;98607.25;5034688;28;20216;-73
2023/12/27 01:26:45;;;;;;;2.65;2.33;;;;;;;8.56;84.26;98604.38;5034738;28;20198;-73
2023/12/27 01:29:12;;;;;;;3.05;2.30;;;;;;;8.42;84.78;98608.66;5036208;28;20215;-73
2023/12/27 01:31:39;;;;;;;2.92;2.72;;;;;;;8.33;85.09;98618.63;5036067;28;20202;-72
2023/12/27 01:34:07;;;;;;;2.85;2.60;;;;;;;8.48;84.31;98605.25;5020633;28;20259;-73
2023/12/27 01:36:34;;;;;;;2.65;2.30;;;;;;;8.41;84.27;98607.00;5036970;28;20221;-73
2023/12/27 01:39:00;;;;;;;2.92;2.20;;;;;;;8.43;83.86;98599.56;5036631;28;20204;-73
2023/12/27 01:41:27;;;;;;;4.75;2.75;;;;;;;8.34;84.33;98595.22;5038692;28;20204;-73
2023/12/27 01:43:54;;;;;;;2.78;2.42;;;;;;;8.33;83.39;98596.22;5035478;28;20288;-73
2023/12/27 01:46:20;;;;;;;3.63;2.30;;;;;;;8.26;83.23;98606.81;5036019;28;20650;-73
2023/12/27 01:48:47;;;;;;;4.55;2.30;;;;;;;8.24;82.44;98606.16;5020705;28;20655;-73
2023/12/27 01:51:17;;;;;;;6.00;2.40;;;;;;;8.15;82.81;98611.72;5039311;28;20205;-73
2023/12/27 01:53:44;;;;;;;3.20;2.53;;;;;;;8.38;81.82;98602.78;5020054;28;20197;-73
2023/12/27 01:56:11;;;;;;;4.88;2.70;;;;;;;8.16;82.64;98602.63;5037058;28;20227;-73
2023/12/27 01:58:38;;;;;;;3.03;2.50;;;;;;;8.41;81.33;98601.59;5019496;28;20571;-73
2023/12/27 02:01:04;;;;;;;3.90;2.70;;;;;;;8.23;81.86;98600.94;5038554;28;20220;-72
2023/12/27 02:03:31;;;;;;;3.30;2.60;;;;;;;8.19;82.39;98607.69;5040656;28;20204;-72
2023/12/27 02:05:58;;;;;;;3.47;2.78;;;;;;;8.04;82.75;98603.03;5025380;28;20203;-73
2023/12/27 02:08:27;;;;;;;3.22;2.92;;;;;;;8.04;82.88;98605.72;5038242;28;20205;-72
2023/12/27 02:10:54;;;;;;;2.75;2.55;;;;;;;8.16;82.48;98614.25;5041963;28;20198;-72
2023/12/27 02:13:20;;;;;;;4.90;3.00;;;;;;;8.24;82.40;98621.50;5035345;28;20205;-72
2023/12/27 02:15:47;;;;;;;4.10;3.03;;;;;;;8.41;81.44;98607.00;5039797;28;20224;-72
2023/12/27 02:18:14;;;;;;;6.07;3.30;;;;;;;8.36;81.89;98593.19;5022449;28;20198;-72
2023/12/27 02:20:40;;;;;;;3.35;3.05;;;;;;;8.23;82.49;98599.06;5040431;28;20663;-72
2023/12/27 02:23:08;;;;;;;6.28;4.18;;;;;;;7.94;85.69;98602.34;5041030;28;20201;-72
2023/12/27 02:25:36;;;;;;;4.65;3.83;;;;;;;7.75;86.95;98605.44;5040645;28;20288;-72
2023/12/27 02:28:04;;;;;;;3.78;3.40;;;;;;;7.57;88.37;98599.38;5040712;28;20602;-72
2023/12/27 02:30:33;;;;;;;6.18;4.13;;;;;;;7.73;87.06;98605.59;5041211;28;20206;-72
2023/12/27 02:33:00;;;;;;;4.22;3.90;;;;;;;7.77;86.86;98598.03;5040543;28;20198;-73
2023/12/27 02:35:26;;;;;;;4.65;4.25;;;;;;;7.70;87.33;98597.03;5057214;28;20316;-72
2023/12/27 02:37:53;;;;;;;6.72;3.85;;;;;;;7.78;87.20;98602.41;5019440;28;20209;-72
2023/12/27 02:40:20;;;;;;;5.28;3.90;;;;;;;7.56;88.27;98598.53;5039205;28;20198;-72
2023/12/27 02:42:48;;;;;;;4.63;4.15;;;;;;;7.52;89.04;98601.72;5038616;28;20902;-72
2023/12/27 02:45:15;;;;;;;5.00;4.50;;;;;;;7.59;89.20;98595.50;5038964;28;20586;-73
2023/12/27 02:47:41;;;;;;;5.28;4.45;;;;;;;7.72;89.04;98597.69;5040709;28;20675;-73
2023/12/27 02:50:09;;;;;;;6.70;5.05;;;;;;;7.53;90.16;98593.47;5043786;28;20208;-71
2023/12/27 02:52:35;;;;;;;6.10;4.90;;;;;;;7.54;90.07;98592.47;5040226;28;20193;-72
2023/12/27 02:55:02;;;;;;;5.32;4.93;;;;;;;7.59;89.02;98584.72;5039916;28;20201;-72
2023/12/27 02:57:29;;;;;;;9.07;5.75;;;;;;;7.61;89.85;98582.72;5040067;28;20294;-72
2023/12/27 02:59:57;;;;;;;5.95;4.68;;;;;;;7.60;90.12;98586.41;5022616;28;20198;-72
2023/12/27 03:02:23;;;;;;;7.80;6.15;;;;;;;7.56;89.91;98578.84;5038434;28;20204;-73
2023/12/27 03:04:51;;;;;;;5.50;4.95;;;;;;;7.65;89.67;98580.53;5039263;28;20193;-72
2023/12/27 03:07:17;;;;;;;6.55;5.95;;;;;;;7.56;89.79;98568.91;5041249;28;20193;-72
2023/12/27 03:09:43;;;;;;;8.67;7.67;;;;;;;7.36;91.23;98567.59;5037105;28;20209;-72
2023/12/27 03:12:10;;;;;;;8.13;7.43;;;;;;;7.35;91.29;98565.91;5038958;28;20233;-73
2023/12/27 03:14:37;;;;;;;9.82;7.32;;;;;;;7.42;92.13;98566.91;5040485;28;20213;-73
2023/12/27 03:17:09;;;;;;;9.60;7.40;;;;;;;7.37;91.91;98563.88;5036690;28;20691;-72
2023/12/27 03:19:35;;;;;;;11.40;8.75;;;;;;;7.40;91.55;98564.38;5040377;28;20220;-72
2023/12/27 03:22:02;;;;;;;9.60;7.65;;;;;;;7.40;91.42;98567.09;5036348;28;20909;-72
2023/12/27 03:24:29;;;;;;;10.30;7.60;;;;;;;7.32;91.99;98545.53;5040862;28;20259;-73
2023/12/27 03:26:55;;;;;;;9.18;8.27;;;;;;;7.32;91.72;98556.31;5039224;28;20210;-73
2023/12/27 03:29:22;;;;;;;7.88;7.07;;;;;;;7.20;92.29;98554.94;5040009;28;20205;-73
2023/12/27 03:31:48;;;;;;;8.55;7.75;;;;;;;7.26;92.44;98559.66;5041845;28;20304;-72
2023/12/27 03:34:16;;;;;;;9.68;7.60;;;;;;;7.19;92.70;98555.97;5040583;28;20284;-73
2023/12/27 03:36:43;;;;;;;9.13;8.07;;;;;;;7.20;93.08;98557.66;5010590;28;20220;-72
2023/12/27 03:39:10;;;;;;;11.02;9.30;;;;;;;7.15;93.27;98560.00;5021083;28;20212;-72
2023/12/27 03:41:37;;;;;;;8.93;8.05;;;;;;;7.27;92.84;98555.97;5040289;28;20205;-72
2023/12/27 03:44:04;;;;;;;13.85;9.45;;;;;;;7.06;93.45;98553.78;5041116;28;20198;-72
2023/12/27 03:46:30;;;;;;;9.25;8.30;;;;;;;7.15;93.66;98545.72;5021035;28;20201;-72
2023/12/27 03:48:57;;;;;;;8.60;7.75;;;;;;;7.17;93.57;98546.38;5038735;28;20232;-73
2023/12/27 03:51:25;;;;;;;9.80;7.78;;;;;;;7.21;93.25;98553.09;5031744;28;20662;-72
2023/12/27 03:53:51;;;;;;;7.68;6.65;;;;;;;7.07;93.52;98550.09;5037671;28;20198;-73
2023/12/27 03:56:18;;;;;;;7.07;6.40;;;;;;;7.18;93.34;98558.81;5040879;28;20231;-73
2023/12/27 03:58:45;;;;;;;8.05;7.32;;;;;;;7.18;92.91;98548.91;5040730;28;20206;-72
2023/12/27 04:01:13;;;;;;;5.93;5.43;;;;;;;7.37;92.54;98558.50;5036128;28;20677;-73
2023/12/27 04:03:41;;;;;;;7.80;6.00;;;;;;;7.29;92.14;98553.09;5036627;28;20197;-73
2023/12/27 04:06:07;;;;;;;7.05;6.35;;;;;;;7.35;91.96;98549.75;5037152;28;20212;-73
2023/12/27 04:08:35;;;;;;;7.35;5.78;;;;;;;7.30;92.30;98552.09;5022714;28;20210;-72
2023/12/27 04:11:02;;;;;;;6.95;6.25;;;;;;;7.34;92.05;98543.53;5035373;28;20236;-73
2023/12/27 04:13:29;;;;;;;7.60;6.55;;;;;;;7.37;92.07;98545.88;5022701;28;20663;-73
2023/12/27 04:15:55;;;;;;;8.32;6.30;;;;;;;7.17;91.63;98508.69;5038633;28;20677;-71
2023/12/27 04:18:22;;;;;;;6.57;5.85;;;;;;;7.33;91.54;98539.16;5037522;28;20308;-73
2023/12/27 04:20:49;;;;;;;6.95;6.28;;;;;;;7.43;91.42;98540.84;5039987;28;20666;-73
2023/12/27 04:23:15;;;;;;;6.03;5.53;;;;;;;7.43;91.37;98546.22;5039554;28;20291;-73
2023/12/27 04:25:44;;;;;;;8.10;5.45;;;;;;;7.36;91.50;98540.66;5040820;28;20284;-72
2023/12/27 04:28:10;;;;;;;6.82;6.03;;;;;;;7.23;91.84;98533.09;5037195;28;20248;-72
2023/12/27 04:30:37;;;;;;;6.60;5.90;;;;;;;7.24;91.53;98532.06;5039042;28;20634;-73
2023/12/27 04:33:04;;;;;;;5.80;4.88;;;;;;;7.00;93.13;98522.16;5036372;28;20211;-72
2023/12/27 04:35:31;;;;;;;6.47;5.80;;;;;;;7.03;93.55;98523.69;5021571;28;20656;-72
2023/12/27 04:37:58;;;;;;;5.20;4.50;;;;;;;7.06;92.77;98515.28;5039264;28;20691;-73
2023/12/27 04:40:25;;;;;;;5.60;5.00;;;;;;;7.02;93.19;98516.63;5022150;28;20590;-73
2023/12/27 04:42:53;;;;;;;7.32;4.63;;;;;;;7.18;92.64;98510.38;5037585;28;20205;-73
2023/12/27 04:45:20;;;;;;;5.38;4.88;;;;;;;7.13;93.00;98513.59;5037118;28;20663;-73
2023/12/27 04:47:47;;;;;;;5.38;4.88;;;;;;;7.16;92.55;98518.63;5038096;28;20316;-73
2023/12/27 04:50:13;;;;;;;7.47;6.70;;;;;;;7.08;92.88;98518.63;5038603;28;20285;-73
2023/12/27 04:52:40;;;;;;;5.15;4.75;;;;;;;7.03;93.51;98519.13;5039451;28;20211;-72
2023/12/27 04:55:07;;;;;;;5.07;4.68;;;;;;;7.22;92.41;98519.78;5038410;28;20212;-74
2023/12/27 04:57:34;;;;;;;6.35;5.43;;;;;;;7.16;91.98;98524.00;5007442;28;20221;-73
2023/12/27 05:00:03;;;;;;;6.68;5.90;;;;;;;7.23;92.25;98519.63;5037458;28;20720;-73
2023/12/27 05:02:30;;;;;;;8.20;5.32;;;;;;;7.22;92.40;98523.31;5019622;28;20288;-74
2023/12/27 05:04:57;;;;;;;5.40;4.68;;;;;;;7.34;91.47;98530.06;5035853;28;20780;-73
2023/12/27 05:07:25;;;;;;;6.72;5.22;;;;;;;7.26;91.97;98530.06;5039200;28;20280;-73
2023/12/27 05:09:51;;;;;;;6.05;5.47;;;;;;;7.38;91.29;98528.72;5039551;28;20975;-73
2023/12/27 05:12:18;;;;;;;6.30;5.30;;;;;;;7.46;91.00;98527.03;5009820;28;20209;-73
2023/12/27 05:14:45;;;;;;;5.97;5.30;;;;;;;7.45;91.02;98519.97;5038573;28;20240;-73
2023/12/27 05:17:13;;;;;;;4.90;4.50;;;;;;;7.39;90.97;98519.63;5019793;28;20236;-73
2023/12/27 05:19:40;;;;;;;5.40;4.75;;;;;;;7.49;90.20;98518.59;5043803;28;20220;-73
2023/12/27 05:22:06;;;;;;;5.30;4.80;;;;;;;7.48;90.44;98511.50;5035266;28;20216;-72
2023/12/27 05:24:33;;;;;;;5.75;4.40;;;;;;;7.60;89.39;98512.84;5041654;28;20212;-73
2023/12/27 05:26:59;;;;;;;4.50;3.95;;;;;;;7.23;90.53;98514.25;5033504;28;20306;-73
2023/12/27 05:29:26;;;;;;;5.65;4.10;;;;;;;7.48;89.50;98514.22;5040605;28;20205;-73
2023/12/27 05:31:52;;;;;;;4.57;3.75;;;;;;;7.67;88.47;98505.78;5019452;28;20283;-73
2023/12/27 05:34:20;;;;;;;4.72;3.30;;;;;;;7.66;87.20;98512.16;5038458;28;20207;-73
2023/12/27 05:36:47;;;;;;;4.88;3.70;;;;;;;7.71;87.39;98513.34;5025315;28;20224;-73
2023/12/27 05:39:14;;;;;;;6.65;3.65;;;;;;;7.56;87.94;98517.72;5025869;28;20211;-73
2023/12/27 05:41:41;;;;;;;4.95;3.33;;;;;;;7.42;88.35;98510.38;5037873;28;20198;-73
2023/12/27 05:44:07;;;;;;;4.32;3.35;;;;;;;7.48;88.40;98522.28;5042559;28;20227;-73
2023/12/27 05:46:35;;;;;;;5.03;4.53;;;;;;;7.40;88.91;98499.78;5040785;28;20930;-73
2023/12/27 05:49:01;;;;;;;5.60;5.10;;;;;;;7.17;89.53;98508.69;5041396;28;20256;-72
2023/12/27 05:51:29;;;;;;;5.97;5.47;;;;;;;7.16;90.62;98512.38;5025584;28;20225;-73
2023/12/27 05:53:56;;;;;;;5.50;5.00;;;;;;;7.33;90.07;98506.84;5043200;28;20296;-73
2023/12/27 05:56:23;;;;;;;5.88;5.38;;;;;;;7.24;90.43;98501.63;5040120;28;20221;-73
2023/12/27 05:58:50;;;;;;;5.97;5.47;;;;;;;7.16;90.87;98502.47;5042046;28;20223;-73
2023/12/27 06:01:19;;;;;;;7.78;6.00;;;;;;;7.17;90.55;98498.75;5040230;28;20209;-73
2023/12/27 06:03:46;;;;;;;8.80;6.38;;;;;;;7.00;90.82;98495.25;5043351;28;20209;-73
2023/12/27 06:06:14;;;;;;;7.00;6.30;;;;;;;6.97;91.10;98492.91;5042864;28;20209;-73
2023/12/27 06:08:41;;;;;;;8.77;6.72;;;;;;;6.80;92.27;98496.59;5023481;28;20206;-73
2023/12/27 06:11:12;;;;;;;6.70;6.10;;;;;;;6.74;93.24;98500.78;5041934;28;20205;-73
2023/12/27 06:13:39;;;;;;;7.95;6.95;;;;;;;6.78;92.21;98495.09;5040387;28;20198;-73
2023/12/27 06:16:06;;;;;;;8.60;7.80;;;;;;;6.60;92.96;98498.75;5024343;28;20224;-73
2023/12/27 06:18:34;;;;;;;12.45;9.35;;;;;;;6.55;93.44;98503.78;5041182;28;20247;-73
2023/12/27 06:21:01;;;;;;;8.20;7.50;;;;;;;6.42;95.27;98499.91;5042124;28;20551;-73
2023/12/27 06:23:28;;;;;;;10.20;9.20;;;;;;;6.47;94.84;98479.59;5040665;28;20293;-73
2023/12/27 06:25:57;;;;;;;14.40;10.30;;;;;;;6.47;94.28;98487.66;5037997;28;20205;-73
2023/12/27 06:28:23;;;;;;;10.60;9.52;;;;;;;6.25;95.41;98464.06;5041373;28;20207;-72
2023/12/27 06:30:50;;;;;;;11.45;10.23;;;;;;;6.51;95.60;98475.53;5025054;28;20201;-73
2023/12/27 06:33:17;;;;;;;11.68;10.32;;;;;;;6.56;95.21;98467.81;5038585;28;20209;-73
2023/12/27 06:35:43;;;;;;;11.18;9.35;;;;;;;6.52;95.43;98469.16;5040842;28;20276;-73
2023/12/27 06:38:10;;;;;;;10.82;9.30;;;;;;;6.49;95.35;98472.19;5040250;28;20217;-72
2023/12/27 06:40:36;;;;;;;9.77;8.35;;;;;;;6.53;95.36;98472.69;5022551;28;20209;-73
2023/12/27 06:43:07;;;;;;;6.13;5.53;;;;;;;7.07;94.29;98477.44;5041040;28;20550;-76
2023/12/27 06:45:34;;;;;;;7.82;6.22;;;;;;;7.33;92.33;98479.91;5022803;28;20239;-75
2023/12/27 06:48:02;;;;;;;8.40;7.30;;;;;;;7.43;90.66;98487.81;5040559;28;20201;-74
2023/12/27 06:50:28;;;;;;;8.52;7.70;;;;;;;7.10;92.04;98478.09;5055620;28;20198;-73
2023/12/27 06:52:56;;;;;;;7.93;7.23;;;;;;;7.02;91.98;98479.78;5049205;28;20216;-73
2023/12/27 06:55:23;;;;;;;8.20;7.30;;;;;;;6.88;92.15;98476.91;5048702;28;20233;-74
2023/12/27 06:57:49;;;;;;;8.48;7.68;;;;;;;6.87;92.00;98475.22;5043894;28;20581;-73
2023/12/27 07:00:18;;;;;;;7.70;7.07;;;;;;;6.93;91.61;98470.03;5040717;28;20205;-75
2023/12/27 07:02:45;;;;;;;7.07;6.47;;;;;;;6.85;91.08;98469.16;5022039;28;20313;-75
2023/12/27 07:05:12;;;;;;;6.13;5.35;;;;;;;6.89;91.50;98478.59;5051467;28;20320;-75
2023/12/27 07:07:38;;;;;;;6.78;6.15;;;;;;;6.86;91.83;98473.53;5046459;28;20194;-75
2023/12/27 07:10:06;;;;;;;7.13;6.53;;;;;;;6.70;92.02;98486.00;5052866;28;20241;-75
2023/12/27 07:12:33;;;;;;;6.65;6.03;;;;;;;6.80;91.27;98490.38;5044265;28;20689;-76
2023/12/27 07:14:59;;;;;;;7.05;6.38;;;;;;;6.96;90.62;98490.38;5039902;28;20292;-75
2023/12/27 07:17:27;;;;;;;6.15;5.55;;;;;;;7.01;90.26;98494.25;5039127;28;20292;-75
2023/12/27 07:19:54;;;;;;;6.07;5.57;;;;;;;6.76;91.68;98499.78;5042183;28;20222;-75
2023/12/27 07:22:21;;;;;;;7.45;6.05;;;;;;;6.67;91.69;98486.31;5041963;28;20571;-74
2023/12/27 07:24:48;;;;;;;5.80;5.30;;;;;;;6.83;90.70;98484.63;5041641;28;20209;-75
2023/12/27 07:27:16;;;;;;;7.88;7.00;;;;;;;6.75;91.30;98477.44;5027927;28;20201;-74
2023/12/27 07:29:44;;;;;;;6.35;5.75;;;;;;;6.95;90.26;98475.25;5038158;28;20190;-74
2023/12/27 07:32:13;;;;;;;9.13;5.35;;;;;;;6.68;89.76;98436.91;5036657;28;20292;-74
2023/12/27 07:34:42;;;;;;;8.10;5.72;;;;;;;7.05;89.62;98476.75;5040479;28;20209;-75
2023/12/27 07:37:09;;;;;;;6.85;5.40;;;;;;;6.93;89.68;98475.41;5035639;28;20213;-75
2023/12/27 07:39:36;;;;;;;6.60;6.05;;;;;;;7.10;89.55;98478.94;5038151;28;20201;-75
2023/12/27 07:42:03;;;;;;;7.63;6.35;;;;;;;6.97;90.20;98473.22;5040364;28;20212;-75
2023/12/27 07:44:31;;;;;;;6.88;6.20;;;;;;;6.95;90.44;98472.53;5041277;28;20202;-77
2023/12/27 07:46:58;;;;;;;8.20;6.57;;;;;;;6.89;90.38;98460.59;5038126;28;20545;-76
2023/12/27 07:49:25;;;;;;;7.47;6.43;;;;;;;6.89;90.11;98481.28;5040945;28;20293;-76
2023/12/27 07:51:54;;;;;;;6.53;5.82;;;;;;;6.96;90.23;98485.00;5025732;28;20211;-76
2023/12/27 07:54:21;;;;;;;8.70;6.60;;;;;;;7.00;89.83;98491.72;5025237;28;20220;-76
2023/12/27 07:56:49;;;;;;;7.90;7.00;;;;;;;7.11;89.60;98502.16;5038900;28;20576;-77
2023/12/27 07:59:17;;;;;;;7.20;6.60;;;;;;;7.03;89.83;98511.06;5040910;28;20305;-75
2023/12/27 08:01:43;;;;;;;8.60;7.70;;;;;;;6.83;90.68;98509.69;5025144;28;20205;-75
2023/12/27 08:04:10;;;;;;;9.30;7.30;;;;;;;6.73;91.28;98495.59;5041963;28;20219;-75
2023/12/27 08:06:36;;;;;;;9.05;7.25;;;;;;;6.71;91.44;98497.59;5032546;28;20266;-76
2023/12/27 08:09:04;;;;;;;8.20;7.40;;;;;;;6.63;91.60;98495.72;5037826;28;20603;-74
2023/12/27 08:11:31;;;;;;;7.65;6.85;;;;;;;6.56;91.75;98494.69;5039343;28;20296;-75
2023/12/27 08:13:59;;;;;;;8.02;7.20;;;;;;;6.72;91.23;98496.59;5032585;28;20194;-75
2023/12/27 08:16:27;;;;;;;9.30;7.07;;;;;;;6.78;90.72;98493.25;5018817;28;20639;-75
2023/12/27 08:18:53;;;;;;;6.57;6.00;;;;;;;6.83;90.17;98490.00;5038568;28;20218;-75
2023/12/27 08:21:20;;;;;;;7.22;6.20;;;;;;;6.82;89.96;98488.38;5024238;28;20419;-76
2023/12/27 08:23:47;;;;;;;6.57;5.95;;;;;;;6.94;89.70;98503.16;5042526;28;20219;-77
2023/12/27 08:26:14;;;;;;;7.45;6.50;;;;;;;7.01;89.62;98498.78;5039408;28;20202;-71
2023/12/27 08:28:42;;;;;;;8.18;6.35;;;;;;;6.99;89.54;98500.81;5034828;28;20291;-76
2023/12/27 08:31:09;;;;;;;7.03;6.35;;;;;;;6.83;90.25;98511.53;5041804;28;20292;-75
2023/12/27 08:33:38;;;;;;;6.95;6.07;;;;;;;7.02;89.75;98503.16;5034732;28;20289;-75
2023/12/27 08:36:08;;;;;;;7.30;6.68;;;;;;;6.81;90.23;98484.00;5017867;28;20212;-76
2023/12/27 08:38:36;;;;;;;6.43;5.80;;;;;;;6.97;90.38;98487.50;5038339;28;20209;-75
2023/12/27 08:41:03;;;;;;;7.65;6.95;;;;;;;6.63;91.61;98494.88;5038234;28;20575;-75
2023/12/27 08:43:31;;;;;;;8.18;6.55;;;;;;;6.83;91.52;98484.63;5040541;28;20280;-74
2023/12/27 08:45:58;;;;;;;10.10;7.07;;;;;;;6.89;90.64;98475.91;5041544;28;20233;-76
2023/12/27 08:48:24;;;;;;;8.73;7.82;;;;;;;6.73;91.38;98484.81;5024449;28;20195;-76
2023/12/27 08:50:52;;;;;;;7.13;5.97;;;;;;;6.94;90.92;98481.63;5046751;28;20297;-75
2023/12/27 08:53:20;;;;;;;7.43;6.68;;;;;;;7.18;89.83;98478.91;5026542;28;20212;-76
2023/12/27 08:55:46;;;;;;;8.10;6.80;;;;;;;7.01;89.98;98472.72;5025785;28;20210;-75
2023/12/27 08:58:13;;;;;;;6.18;5.70;;;;;;;7.21;89.44;98465.13;5022189;28;20310;-76
2023/12/27 09:00:41;;;;;;;7.13;6.55;;;;;;;7.02;90.64;98457.41;5042047;28;20269;-76
2023/12/27 09:03:07;;;;;;;8.60;7.10;;;;;;;7.45;89.51;98455.34;5041798;28;20212;-75
2023/12/27 09:05:34;;;;;;;6.07;5.40;;;;;;;8.36;86.95;98439.47;5006979;28;20208;-75
2023/12/27 09:08:01;;;;;;;6.35;5.85;;;;;;;9.13;81.85;98426.69;5047550;28;20768;-76
2023/12/27 09:10:27;;;;;;;5.43;4.55;;;;;;;9.34;79.36;98434.94;5047992;28;20292;-76
2023/12/27 09:12:56;;;;;;;5.57;5.00;;;;;;;8.77;80.09;98442.72;5046881;28;20221;-76
2023/12/27 09:15:23;;;;;;;5.70;4.32;;;;;;;8.87;79.88;98437.06;5046795;28;20670;-76
2023/12/27 09:17:52;;;;;;;4.57;4.18;;;;;;;8.71;79.24;98452.38;5047008;28;20206;-76
2023/12/27 09:20:18;;;;;;;4.53;4.10;;;;;;;8.44;79.82;98452.06;5048194;28;20726;-76
2023/12/27 09:22:45;;;;;;;4.32;4.03;;;;;;;8.59;80.21;98452.94;5046181;28;20216;-76
2023/12/27 09:25:13;;;;;;;4.55;4.15;;;;;;;9.01;79.16;98420.91;5049190;28;20209;-76
2023/12/27 09:27:40;;;;;;;4.00;3.60;;;;;;;9.48;76.21;98411.63;5048536;28;20205;-76
2023/12/27 09:30:07;;;;;;;4.60;3.92;;;;;;;9.85;75.13;98416.09;5047799;28;20248;-76
2023/12/27 09:32:36;;;;;;;4.50;4.10;;;;;;;10.07;74.10;98417.00;5043469;28;20284;-76
2023/12/27 09:35:05;;;;;;;4.50;3.65;;;;;;;9.90;72.55;98437.16;5045140;28;20670;-77
2023/12/27 09:37:32;;;;;;;4.63;3.60;;;;;;;9.62;73.43;98428.88;5047908;28;20216;-76
2023/12/27 09:39:58;;;;;;;5.43;3.72;;;;;;;9.24;73.48;98420.84;5046482;28;20271;-77
2023/12/27 09:42:27;;;;;;;5.50;3.85;;;;;;;8.88;74.20;98438.72;5046469;28;20205;-76
2023/12/27 09:44:54;;;;;;;4.10;3.80;;;;;;;9.18;73.39;98416.19;5049723;28;20231;-76
2023/12/27 09:47:22;;;;;;;3.53;3.20;;;;;;;9.86;70.83;98409.66;5041405;28;20237;-76
2023/12/27 09:49:50;;;;;;;3.58;3.25;;;;;;;10.54;67.96;98413.81;5048125;28;20651;-77
2023/12/27 09:52:21;;;;;;;3.92;3.17;;;;;;;10.57;67.11;98423.41;5045646;28;20208;-76
2023/12/27 09:54:55;;;;;;;3.95;3.50;;;;;;;10.82;65.28;98421.97;5031105;28;20206;-77
2023/12/27 09:57:23;;;;;;;3.88;3.50;;;;;;;10.71;66.04;98420.66;5046036;28;20213;-76
2023/12/27 09:59:52;;;;;;;4.18;3.20;;;;;;;10.83;65.24;98417.41;5030438;28;20229;-76
2023/12/27 10:02:20;;;;;;;3.55;3.20;;;;;;;11.10;63.87;98408.47;5043412;28;20198;-77
2023/12/27 10:04:49;;;;;;;3.42;2.95;;;;;;;11.81;62.93;98411.88;5047209;28;20205;-76
2023/12/27 10:07:18;;;;;;;3.47;3.17;;;;;;;12.06;61.18;98407.63;5047443;28;20232;-77
2023/12/27 10:09:45;;;;;;;3.88;3.45;;;;;;;11.77;61.35;98410.63;5045657;28;20707;-76
2023/12/27 10:12:13;;;;;;;3.90;3.10;;;;;;;12.21;60.20;98396.63;5029404;28;20213;-78
2023/12/27 10:14:43;;;;;;;3.47;3.17;;;;;;;12.41;59.59;98396.66;5044714;28;20645;-76
2023/12/27 10:17:11;;;;;;;3.50;3.20;;;;;;;12.36;59.29;98391.84;5042978;28;20652;-77
2023/12/27 10:19:38;;;;;;;4.27;3.23;;;;;;;13.11;57.94;98387.13;5045101;28;21013;-76
2023/12/27 10:22:05;;;;;;;4.10;3.23;;;;;;;13.52;56.98;98388.81;5037053;28;20951;-75
2023/12/27 10:24:34;;;;;;;3.97;3.00;;;;;;;13.52;55.58;98384.19;5043928;28;20697;-75
2023/12/27 10:27:01;;;;;;;3.57;3.20;;;;;;;12.41;58.99;98364.09;5045893;28;20656;-75
2023/12/27 10:29:28;;;;;;;6.70;3.20;;;;;;;11.99;59.73;98349.81;5039448;28;20642;-75
2023/12/27 10:31:54;;;;;;;3.70;3.20;;;;;;;11.32;62.01;98342.38;5050027;28;20607;-75
2023/12/27 10:34:21;;;;;;;3.92;3.22;;;;;;;10.81;63.72;98330.13;5050650;28;20666;-76
2023/12/27 10:36:50;;;;;;;3.63;3.33;;;;;;;10.44;64.70;98335.63;5061704;28;20263;-76
2023/12/27 10:39:18;;;;;;;3.80;3.30;;;;;;;10.92;63.70;98345.84;5027378;28;20726;-75
2023/12/27 10:41:46;;;;;;;3.60;3.30;;;;;;;11.47;61.91;98344.94;5044526;28;20671;-75
2023/12/27 10:44:17;;;;;;;3.17;2.90;;;;;;;11.91;60.43;98352.69;5045679;28;20640;-76
2023/12/27 10:46:44;;;;;;;3.50;3.20;;;;;;;11.88;59.67;98353.09;5043887;28;20665;-79
2023/12/27 10:49:14;;;;;;;3.10;2.90;;;;;;;12.69;57.70;98348.47;5009119;28;20621;-76
2023/12/27 10:51:41;;;;;;;4.80;3.60;;;;;;;13.41;55.10;98325.84;5029634;28;20633;-76
2023/12/27 10:54:08;;;;;;;5.70;3.00;;;;;;;13.91;53.43;98323.38;5044980;28;20674;-76
2023/12/27 10:56:37;;;;;;;3.63;2.77;;;;;;;13.52;54.35;98309.94;5066561;28;20638;-76
2023/12/27 10:59:05;;;;;;;3.60;3.10;;;;;;;13.16;55.31;98319.44;5060499;28;20650;-75
2023/12/27 11:01:34;;;;;;;4.03;2.83;;;;;;;13.93;53.09;98315.00;5042965;28;21251;-75
2023/12/27 11:04:01;;;;;;;3.13;2.93;;;;;;;14.01;52.35;98306.56;5050488;28;20998;-76
2023/12/27 11:06:30;;;;;;;4.50;3.17;;;;;;;13.03;53.93;98319.41;5024969;28;20676;-76
2023/12/27 11:08:57;;;;;;;4.17;3.50;;;;;;;12.11;56.25;98314.75;5044242;28;20699;-75
2023/12/27 11:11:26;;;;;;;4.50;3.07;;;;;;;12.34;56.77;98303.56;5040852;28;20633;-75
2023/12/27 11:13:53;;;;;;;4.00;3.30;;;;;;;12.00;57.22;98308.09;5024611;28;20726;-75
2023/12/27 11:16:23;;;;;;;3.93;3.20;;;;;;;12.29;57.02;98306.88;5023000;28;21385;-75
2023/12/27 11:18:51;;;;;;;3.67;2.87;;;;;;;12.02;57.03;98299.75;5040536;28;20648;-75
2023/12/27 11:21:18;;;;;;;4.80;2.80;;;;;;;12.40;57.26;98298.13;5040829;28;20640;-76
2023/12/27 11:23:44;;;;;;;3.20;2.77;;;;;;;12.33;56.96;98302.72;5042404;28;21200;-75
2023/12/27 11:26:14;;;;;;;3.40;3.10;;;;;;;12.69;55.23;98296.88;5024589;28;20671;-75
2023/12/27 11:28:42;;;;;;;4.70;3.53;;;;;;;12.68;55.84;98283.50;5041869;28;20208;-76
2023/12/27 11:31:08;;;;;;;5.43;3.70;;;;;;;12.96;55.18;98286.84;5041053;28;20667;-76
2023/12/27 11:33:36;;;;;;;5.20;3.20;;;;;;;13.44;54.16;98268.34;5023597;28;20743;-76
2023/12/27 11:36:04;;;;;;;4.60;3.43;;;;;;;13.66;52.33;98262.59;5043780;28;20687;-76
2023/12/27 11:38:34;;;;;;;5.00;3.40;;;;;;;13.40;52.57;98267.09;5039784;28;20640;-75